Terminal Aerodrome Forecast
Issued by NWS North Platte, NE

Home | Current Version | Previous Version | Text Only | Print | Product List | Glossary Off
Versions: 1 2 3 4 5 6 7 8 9 10 11 12 13

902
FTUS43 KLBF 232320
TAFVTN
TAF
KVTN 232320Z 2400/2424 33017G24KT P6SM FEW250
     FM240300 33006KT P6SM FEW250
     FM240900 28005KT P6SM SKC
     FM241800 31013G19KT P6SM FEW250=

USA.gov is the U.S. government's official web portal to all federal, state and local government web resources and services.